sensor_id;sensor_type;location;lat;lon;timestamp;P1;durP1;ratioP1;P2;durP2;ratioP2
25213;SDS011;13160;51.834;4.706;2023-04-25T00:00:03;23.00;;;3.70;;
25213;SDS011;13160;51.834;4.706;2023-04-25T00:02:33;15.75;;;3.28;;
25213;SDS011;13160;51.834;4.706;2023-04-25T00:05:04;20.35;;;3.53;;
25213;SDS011;13160;51.834;4.706;2023-04-25T00:07:33;23.17;;;3.88;;
25213;SDS011;13160;51.834;4.706;2023-04-25T00:10:02;12.40;;;3.03;;
25213;SDS011;13160;51.834;4.706;2023-04-25T00:12:32;15.77;;;3.55;;
25213;SDS011;13160;51.834;4.706;2023-04-25T00:15:00;15.95;;;3.25;;
25213;SDS011;13160;51.834;4.706;2023-04-25T00:17:29;22.15;;;4.00;;
25213;SDS011;13160;51.834;4.706;2023-04-25T00:19:57;24.27;;;3.03;;
25213;SDS011;13160;51.834;4.706;2023-04-25T00:22:27;23.70;;;3.67;;
25213;SDS011;13160;51.834;4.706;2023-04-25T00:24:56;16.90;;;2.88;;
25213;SDS011;13160;51.834;4.706;2023-04-25T00:27:26;17.23;;;3.78;;
25213;SDS011;13160;51.834;4.706;2023-04-25T00:29:54;27.25;;;4.78;;
25213;SDS011;13160;51.834;4.706;2023-04-25T00:32:23;16.70;;;3.50;;
25213;SDS011;13160;51.834;4.706;2023-04-25T00:34:51;15.07;;;3.90;;
25213;SDS011;13160;51.834;4.706;2023-04-25T00:37:21;18.23;;;4.53;;
25213;SDS011;13160;51.834;4.706;2023-04-25T00:39:51;14.27;;;3.33;;
25213;SDS011;13160;51.834;4.706;2023-04-25T00:42:22;15.68;;;4.30;;
25213;SDS011;13160;51.834;4.706;2023-04-25T00:44:53;15.80;;;3.78;;
25213;SDS011;13160;51.834;4.706;2023-04-25T00:47:22;11.82;;;3.28;;
25213;SDS011;13160;51.834;4.706;2023-04-25T00:49:52;16.73;;;3.88;;
25213;SDS011;13160;51.834;4.706;2023-04-25T00:52:20;16.33;;;3.80;;
25213;SDS011;13160;51.834;4.706;2023-04-25T00:54:49;16.38;;;3.20;;
25213;SDS011;13160;51.834;4.706;2023-04-25T00:57:19;15.52;;;3.55;;
25213;SDS011;13160;51.834;4.706;2023-04-25T00:59:47;23.60;;;3.38;;
25213;SDS011;13160;51.834;4.706;2023-04-25T01:02:18;7.43;;;2.85;;
25213;SDS011;13160;51.834;4.706;2023-04-25T01:04:48;18.10;;;3.17;;
25213;SDS011;13160;51.834;4.706;2023-04-25T01:07:16;11.52;;;3.03;;
25213;SDS011;13160;51.834;4.706;2023-04-25T01:09:46;18.27;;;3.28;;
25213;SDS011;13160;51.834;4.706;2023-04-25T01:12:17;18.52;;;3.50;;
25213;SDS011;13160;51.834;4.706;2023-04-25T01:14:49;28.05;;;3.80;;
25213;SDS011;13160;51.834;4.706;2023-04-25T01:17:17;10.93;;;3.47;;
25213;SDS011;13160;51.834;4.706;2023-04-25T01:19:47;15.13;;;3.58;;
25213;SDS011;13160;51.834;4.706;2023-04-25T01:22:18;23.17;;;3.80;;
25213;SDS011;13160;51.834;4.706;2023-04-25T01:24:49;13.82;;;3.25;;
25213;SDS011;13160;51.834;4.706;2023-04-25T01:27:17;18.55;;;3.92;;
25213;SDS011;13160;51.834;4.706;2023-04-25T01:29:47;14.85;;;3.28;;
25213;SDS011;13160;51.834;4.706;2023-04-25T01:32:16;13.00;;;3.33;;
25213;SDS011;13160;51.834;4.706;2023-04-25T01:34:45;16.73;;;3.30;;
25213;SDS011;13160;51.834;4.706;2023-04-25T01:37:17;13.13;;;2.90;;
25213;SDS011;13160;51.834;4.706;2023-04-25T01:39:49;21.02;;;3.70;;
25213;SDS011;13160;51.834;4.706;2023-04-25T01:42:21;12.55;;;3.13;;
25213;SDS011;13160;51.834;4.706;2023-04-25T01:44:49;14.15;;;3.78;;
25213;SDS011;13160;51.834;4.706;2023-04-25T01:47:18;19.98;;;4.35;;
25213;SDS011;13160;51.834;4.706;2023-04-25T01:49:46;17.48;;;2.90;;
25213;SDS011;13160;51.834;4.706;2023-04-25T01:52:15;23.98;;;3.78;;
25213;SDS011;13160;51.834;4.706;2023-04-25T01:54:47;30.15;;;3.15;;
25213;SDS011;13160;51.834;4.706;2023-04-25T01:57:16;11.85;;;2.95;;
25213;SDS011;13160;51.834;4.706;2023-04-25T01:59:44;14.18;;;4.07;;
25213;SDS011;13160;51.834;4.706;2023-04-25T02:02:13;18.85;;;3.15;;
25213;SDS011;13160;51.834;4.706;2023-04-25T02:04:42;11.82;;;2.72;;
25213;SDS011;13160;51.834;4.706;2023-04-25T02:07:10;14.63;;;3.30;;
25213;SDS011;13160;51.834;4.706;2023-04-25T02:09:40;13.25;;;3.38;;
25213;SDS011;13160;51.834;4.706;2023-04-25T02:12:09;15.02;;;3.92;;
25213;SDS011;13160;51.834;4.706;2023-04-25T02:14:38;15.55;;;3.72;;
25213;SDS011;13160;51.834;4.706;2023-04-25T02:17:06;8.25;;;2.85;;
25213;SDS011;13160;51.834;4.706;2023-04-25T02:19:35;7.60;;;2.25;;
25213;SDS011;13160;51.834;4.706;2023-04-25T02:22:03;11.02;;;3.38;;
25213;SDS011;13160;51.834;4.706;2023-04-25T02:24:31;19.80;;;3.88;;
25213;SDS011;13160;51.834;4.706;2023-04-25T02:27:02;14.13;;;3.38;;
25213;SDS011;13160;51.834;4.706;2023-04-25T02:29:31;20.10;;;3.65;;
25213;SDS011;13160;51.834;4.706;2023-04-25T02:31:59;7.47;;;2.63;;
25213;SDS011;13160;51.834;4.706;2023-04-25T02:34:28;11.98;;;2.78;;
25213;SDS011;13160;51.834;4.706;2023-04-25T02:36:56;18.50;;;3.00;;
25213;SDS011;13160;51.834;4.706;2023-04-25T02:39:25;16.15;;;3.03;;
25213;SDS011;13160;51.834;4.706;2023-04-25T02:42:04;14.18;;;3.30;;
25213;SDS011;13160;51.834;4.706;2023-04-25T02:44:32;11.73;;;2.88;;
25213;SDS011;13160;51.834;4.706;2023-04-25T02:47:00;17.08;;;2.60;;
25213;SDS011;13160;51.834;4.706;2023-04-25T02:49:29;14.65;;;3.40;;
25213;SDS011;13160;51.834;4.706;2023-04-25T02:51:57;11.75;;;2.60;;
25213;SDS011;13160;51.834;4.706;2023-04-25T02:54:28;15.32;;;2.65;;
25213;SDS011;13160;51.834;4.706;2023-04-25T02:56:57;9.48;;;3.05;;
25213;SDS011;13160;51.834;4.706;2023-04-25T02:59:28;16.48;;;2.88;;
25213;SDS011;13160;51.834;4.706;2023-04-25T03:01:57;11.23;;;2.75;;
25213;SDS011;13160;51.834;4.706;2023-04-25T03:04:25;8.75;;;2.20;;
25213;SDS011;13160;51.834;4.706;2023-04-25T03:06:54;15.20;;;2.25;;
25213;SDS011;13160;51.834;4.706;2023-04-25T03:09:22;10.40;;;2.80;;
25213;SDS011;13160;51.834;4.706;2023-04-25T03:11:51;11.80;;;1.60;;
25213;SDS011;13160;51.834;4.706;2023-04-25T03:14:19;9.63;;;1.77;;
25213;SDS011;13160;51.834;4.706;2023-04-25T03:16:49;16.77;;;2.28;;
25213;SDS011;13160;51.834;4.706;2023-04-25T03:19:20;8.77;;;2.67;;
25213;SDS011;13160;51.834;4.706;2023-04-25T03:21:49;5.47;;;2.45;;
25213;SDS011;13160;51.834;4.706;2023-04-25T03:24:17;10.45;;;2.10;;
25213;SDS011;13160;51.834;4.706;2023-04-25T03:26:45;9.00;;;1.85;;
25213;SDS011;13160;51.834;4.706;2023-04-25T03:29:14;9.00;;;2.38;;
25213;SDS011;13160;51.834;4.706;2023-04-25T03:31:42;5.68;;;1.67;;
25213;SDS011;13160;51.834;4.706;2023-04-25T03:34:13;5.32;;;2.25;;
25213;SDS011;13160;51.834;4.706;2023-04-25T03:36:41;13.05;;;2.50;;
25213;SDS011;13160;51.834;4.706;2023-04-25T03:39:10;6.03;;;1.80;;
25213;SDS011;13160;51.834;4.706;2023-04-25T03:41:38;9.93;;;2.15;;
25213;SDS011;13160;51.834;4.706;2023-04-25T03:44:07;11.52;;;3.10;;
25213;SDS011;13160;51.834;4.706;2023-04-25T03:46:35;7.35;;;2.33;;
25213;SDS011;13160;51.834;4.706;2023-04-25T03:49:03;7.88;;;2.10;;
25213;SDS011;13160;51.834;4.706;2023-04-25T03:51:33;5.07;;;1.40;;
25213;SDS011;13160;51.834;4.706;2023-04-25T03:54:02;5.53;;;1.83;;
25213;SDS011;13160;51.834;4.706;2023-04-25T03:56:33;8.18;;;1.45;;
25213;SDS011;13160;51.834;4.706;2023-04-25T03:59:02;11.50;;;1.80;;
25213;SDS011;13160;51.834;4.706;2023-04-25T04:01:30;11.30;;;2.35;;
25213;SDS011;13160;51.834;4.706;2023-04-25T04:03:59;8.18;;;1.73;;
25213;SDS011;13160;51.834;4.706;2023-04-25T04:06:27;5.22;;;2.08;;
25213;SDS011;13160;51.834;4.706;2023-04-25T04:08:57;6.63;;;1.85;;
25213;SDS011;13160;51.834;4.706;2023-04-25T04:11:26;8.63;;;2.17;;
25213;SDS011;13160;51.834;4.706;2023-04-25T04:13:54;11.55;;;2.22;;
25213;SDS011;13160;51.834;4.706;2023-04-25T04:16:22;7.43;;;1.80;;
25213;SDS011;13160;51.834;4.706;2023-04-25T04:18:51;10.18;;;2.63;;
25213;SDS011;13160;51.834;4.706;2023-04-25T04:21:20;9.82;;;2.30;;
25213;SDS011;13160;51.834;4.706;2023-04-25T04:23:48;13.50;;;3.33;;
25213;SDS011;13160;51.834;4.706;2023-04-25T04:26:18;7.75;;;2.10;;
25213;SDS011;13160;51.834;4.706;2023-04-25T04:28:49;7.55;;;2.00;;
25213;SDS011;13160;51.834;4.706;2023-04-25T04:31:18;7.07;;;2.08;;
25213;SDS011;13160;51.834;4.706;2023-04-25T04:33:46;14.80;;;3.42;;
25213;SDS011;13160;51.834;4.706;2023-04-25T04:36:15;18.92;;;2.10;;
25213;SDS011;13160;51.834;4.706;2023-04-25T04:38:48;11.98;;;2.20;;
25213;SDS011;13160;51.834;4.706;2023-04-25T04:41:16;15.02;;;2.45;;
25213;SDS011;13160;51.834;4.706;2023-04-25T04:43:46;6.65;;;1.83;;
25213;SDS011;13160;51.834;4.706;2023-04-25T04:46:15;10.93;;;2.22;;
25213;SDS011;13160;51.834;4.706;2023-04-25T04:48:44;13.38;;;2.70;;
25213;SDS011;13160;51.834;4.706;2023-04-25T04:51:13;14.48;;;2.45;;
25213;SDS011;13160;51.834;4.706;2023-04-25T04:53:42;12.48;;;2.25;;
25213;SDS011;13160;51.834;4.706;2023-04-25T04:56:10;21.50;;;2.78;;
25213;SDS011;13160;51.834;4.706;2023-04-25T04:58:40;8.80;;;2.00;;
25213;SDS011;13160;51.834;4.706;2023-04-25T05:01:08;7.20;;;2.65;;
25213;SDS011;13160;51.834;4.706;2023-04-25T05:03:37;15.45;;;2.90;;
25213;SDS011;13160;51.834;4.706;2023-04-25T05:06:06;10.13;;;2.58;;
25213;SDS011;13160;51.834;4.706;2023-04-25T05:08:35;11.57;;;2.42;;
25213;SDS011;13160;51.834;4.706;2023-04-25T05:11:04;13.88;;;2.03;;
25213;SDS011;13160;51.834;4.706;2023-04-25T05:13:32;11.55;;;2.38;;
25213;SDS011;13160;51.834;4.706;2023-04-25T05:16:02;8.55;;;2.17;;
25213;SDS011;13160;51.834;4.706;2023-04-25T05:18:31;10.48;;;2.03;;
25213;SDS011;13160;51.834;4.706;2023-04-25T05:20:59;12.05;;;2.25;;
25213;SDS011;13160;51.834;4.706;2023-04-25T05:23:28;10.48;;;2.65;;
25213;SDS011;13160;51.834;4.706;2023-04-25T05:25:58;11.77;;;2.60;;
25213;SDS011;13160;51.834;4.706;2023-04-25T05:28:28;15.48;;;3.13;;
25213;SDS011;13160;51.834;4.706;2023-04-25T05:30:57;16.00;;;2.40;;
25213;SDS011;13160;51.834;4.706;2023-04-25T05:33:28;14.85;;;2.72;;
25213;SDS011;13160;51.834;4.706;2023-04-25T05:35:56;11.60;;;2.53;;
25213;SDS011;13160;51.834;4.706;2023-04-25T05:38:25;10.48;;;1.92;;
25213;SDS011;13160;51.834;4.706;2023-04-25T05:40:53;9.35;;;2.00;;
25213;SDS011;13160;51.834;4.706;2023-04-25T05:43:21;11.13;;;2.00;;
25213;SDS011;13160;51.834;4.706;2023-04-25T05:45:52;12.48;;;2.63;;
25213;SDS011;13160;51.834;4.706;2023-04-25T05:48:21;7.32;;;2.13;;
25213;SDS011;13160;51.834;4.706;2023-04-25T05:50:50;21.48;;;2.63;;
25213;SDS011;13160;51.834;4.706;2023-04-25T05:53:19;9.02;;;2.10;;
25213;SDS011;13160;51.834;4.706;2023-04-25T05:55:48;7.07;;;2.30;;
25213;SDS011;13160;51.834;4.706;2023-04-25T05:58:16;4.57;;;1.50;;
25213;SDS011;13160;51.834;4.706;2023-04-25T06:00:44;5.25;;;1.80;;
25213;SDS011;13160;51.834;4.706;2023-04-25T06:03:15;17.42;;;2.35;;
25213;SDS011;13160;51.834;4.706;2023-04-25T06:05:46;11.30;;;2.30;;
25213;SDS011;13160;51.834;4.706;2023-04-25T06:08:16;10.45;;;2.25;;
25213;SDS011;13160;51.834;4.706;2023-04-25T06:10:45;7.55;;;2.13;;
25213;SDS011;13160;51.834;4.706;2023-04-25T06:13:14;12.90;;;3.42;;
25213;SDS011;13160;51.834;4.706;2023-04-25T06:15:42;11.05;;;2.25;;
25213;SDS011;13160;51.834;4.706;2023-04-25T06:18:11;9.98;;;1.88;;
25213;SDS011;13160;51.834;4.706;2023-04-25T06:20:39;11.27;;;2.30;;
25213;SDS011;13160;51.834;4.706;2023-04-25T06:23:07;8.90;;;2.38;;
25213;SDS011;13160;51.834;4.706;2023-04-25T06:25:37;6.70;;;1.92;;
25213;SDS011;13160;51.834;4.706;2023-04-25T06:28:06;7.28;;;2.33;;
25213;SDS011;13160;51.834;4.706;2023-04-25T06:30:34;10.90;;;2.15;;
25213;SDS011;13160;51.834;4.706;2023-04-25T06:33:02;8.60;;;2.20;;
25213;SDS011;13160;51.834;4.706;2023-04-25T06:35:31;11.55;;;2.55;;
25213;SDS011;13160;51.834;4.706;2023-04-25T06:38:00;13.32;;;2.22;;
25213;SDS011;13160;51.834;4.706;2023-04-25T06:40:28;11.48;;;2.03;;
25213;SDS011;13160;51.834;4.706;2023-04-25T06:42:58;11.65;;;2.25;;
25213;SDS011;13160;51.834;4.706;2023-04-25T06:45:26;4.80;;;1.48;;
25213;SDS011;13160;51.834;4.706;2023-04-25T06:47:54;10.80;;;1.90;;
25213;SDS011;13160;51.834;4.706;2023-04-25T06:50:23;4.10;;;1.27;;
25213;SDS011;13160;51.834;4.706;2023-04-25T06:52:51;4.25;;;0.93;;
25213;SDS011;13160;51.834;4.706;2023-04-25T06:55:20;7.20;;;1.35;;
25213;SDS011;13160;51.834;4.706;2023-04-25T06:57:48;13.80;;;1.52;;
25213;SDS011;13160;51.834;4.706;2023-04-25T07:00:18;7.70;;;0.98;;
25213;SDS011;13160;51.834;4.706;2023-04-25T07:02:48;2.25;;;1.00;;
25213;SDS011;13160;51.834;4.706;2023-04-25T07:05:16;4.38;;;1.17;;
25213;SDS011;13160;51.834;4.706;2023-04-25T07:07:51;11.00;;;2.25;;
25213;SDS011;13160;51.834;4.706;2023-04-25T07:10:19;3.47;;;1.05;;
25213;SDS011;13160;51.834;4.706;2023-04-25T07:12:48;5.20;;;1.00;;
25213;SDS011;13160;51.834;4.706;2023-04-25T07:15:17;9.10;;;1.38;;
25213;SDS011;13160;51.834;4.706;2023-04-25T07:17:46;5.05;;;1.05;;
25213;SDS011;13160;51.834;4.706;2023-04-25T07:20:14;4.85;;;1.13;;
25213;SDS011;13160;51.834;4.706;2023-04-25T07:22:43;11.10;;;1.60;;
25213;SDS011;13160;51.834;4.706;2023-04-25T07:25:11;6.10;;;1.20;;
25213;SDS011;13160;51.834;4.706;2023-04-25T07:27:40;5.90;;;1.48;;
25213;SDS011;13160;51.834;4.706;2023-04-25T07:30:08;5.32;;;1.60;;
25213;SDS011;13160;51.834;4.706;2023-04-25T07:32:39;25.10;;;2.17;;
25213;SDS011;13160;51.834;4.706;2023-04-25T07:35:08;3.53;;;1.17;;
25213;SDS011;13160;51.834;4.706;2023-04-25T07:37:36;9.10;;;1.25;;
25213;SDS011;13160;51.834;4.706;2023-04-25T07:40:05;8.05;;;1.58;;
25213;SDS011;13160;51.834;4.706;2023-04-25T07:42:35;15.55;;;2.42;;
25213;SDS011;13160;51.834;4.706;2023-04-25T07:45:04;12.48;;;1.85;;
25213;SDS011;13160;51.834;4.706;2023-04-25T07:47:35;10.15;;;1.70;;
25213;SDS011;13160;51.834;4.706;2023-04-25T07:50:06;7.97;;;1.42;;
25213;SDS011;13160;51.834;4.706;2023-04-25T07:52:36;12.02;;;2.42;;
25213;SDS011;13160;51.834;4.706;2023-04-25T07:55:05;10.80;;;1.70;;
25213;SDS011;13160;51.834;4.706;2023-04-25T07:57:33;7.53;;;1.50;;
25213;SDS011;13160;51.834;4.706;2023-04-25T08:00:02;5.50;;;1.40;;
25213;SDS011;13160;51.834;4.706;2023-04-25T08:02:35;7.78;;;1.75;;
25213;SDS011;13160;51.834;4.706;2023-04-25T08:05:04;5.30;;;1.45;;
25213;SDS011;13160;51.834;4.706;2023-04-25T08:07:38;7.07;;;1.60;;
25213;SDS011;13160;51.834;4.706;2023-04-25T08:10:07;13.20;;;1.60;;
25213;SDS011;13160;51.834;4.706;2023-04-25T08:12:36;6.60;;;1.58;;
25213;SDS011;13160;51.834;4.706;2023-04-25T08:15:05;5.80;;;1.45;;
25213;SDS011;13160;51.834;4.706;2023-04-25T08:17:34;10.05;;;1.27;;
25213;SDS011;13160;51.834;4.706;2023-04-25T08:20:03;7.03;;;1.40;;
25213;SDS011;13160;51.834;4.706;2023-04-25T08:22:35;9.70;;;1.70;;
25213;SDS011;13160;51.834;4.706;2023-04-25T08:25:04;7.40;;;1.23;;
25213;SDS011;13160;51.834;4.706;2023-04-25T08:27:33;15.38;;;1.90;;
25213;SDS011;13160;51.834;4.706;2023-04-25T08:30:02;8.65;;;1.10;;
25213;SDS011;13160;51.834;4.706;2023-04-25T08:32:32;9.68;;;1.08;;
25213;SDS011;13160;51.834;4.706;2023-04-25T08:35:01;9.13;;;1.65;;
25213;SDS011;13160;51.834;4.706;2023-04-25T08:37:34;6.25;;;1.33;;
25213;SDS011;13160;51.834;4.706;2023-04-25T08:40:03;5.82;;;1.58;;
25213;SDS011;13160;51.834;4.706;2023-04-25T08:42:33;5.18;;;1.27;;
25213;SDS011;13160;51.834;4.706;2023-04-25T08:45:02;4.40;;;1.45;;
25213;SDS011;13160;51.834;4.706;2023-04-25T08:47:33;6.95;;;1.45;;
25213;SDS011;13160;51.834;4.706;2023-04-25T08:50:07;13.35;;;1.73;;
25213;SDS011;13160;51.834;4.706;2023-04-25T08:52:37;12.07;;;1.80;;
25213;SDS011;13160;51.834;4.706;2023-04-25T08:55:12;5.00;;;1.30;;
25213;SDS011;13160;51.834;4.706;2023-04-25T08:57:41;6.28;;;1.42;;
25213;SDS011;13160;51.834;4.706;2023-04-25T09:00:11;7.18;;;1.25;;
25213;SDS011;13160;51.834;4.706;2023-04-25T09:02:40;5.70;;;1.25;;
25213;SDS011;13160;51.834;4.706;2023-04-25T09:05:14;8.13;;;1.58;;
25213;SDS011;13160;51.834;4.706;2023-04-25T09:07:46;7.95;;;1.50;;
25213;SDS011;13160;51.834;4.706;2023-04-25T09:10:16;7.78;;;1.25;;
25213;SDS011;13160;51.834;4.706;2023-04-25T09:12:44;6.95;;;1.50;;
25213;SDS011;13160;51.834;4.706;2023-04-25T09:15:32;8.85;;;1.80;;
25213;SDS011;13160;51.834;4.706;2023-04-25T09:18:01;10.18;;;1.77;;
25213;SDS011;13160;51.834;4.706;2023-04-25T09:20:31;10.32;;;1.67;;
25213;SDS011;13160;51.834;4.706;2023-04-25T09:23:05;5.72;;;1.38;;
25213;SDS011;13160;51.834;4.706;2023-04-25T09:25:34;6.13;;;1.50;;
25213;SDS011;13160;51.834;4.706;2023-04-25T09:28:05;8.75;;;1.67;;
25213;SDS011;13160;51.834;4.706;2023-04-25T09:30:34;12.60;;;1.35;;
25213;SDS011;13160;51.834;4.706;2023-04-25T09:33:04;11.10;;;1.67;;
25213;SDS011;13160;51.834;4.706;2023-04-25T09:35:38;11.57;;;1.52;;
25213;SDS011;13160;51.834;4.706;2023-04-25T09:38:10;9.48;;;1.30;;
25213;SDS011;13160;51.834;4.706;2023-04-25T09:40:40;9.70;;;1.63;;
25213;SDS011;13160;51.834;4.706;2023-04-25T09:43:18;6.38;;;1.23;;
25213;SDS011;13160;51.834;4.706;2023-04-25T09:45:48;11.57;;;1.63;;
25213;SDS011;13160;51.834;4.706;2023-04-25T09:48:18;7.45;;;1.70;;
25213;SDS011;13160;51.834;4.706;2023-04-25T09:50:51;8.50;;;1.27;;
25213;SDS011;13160;51.834;4.706;2023-04-25T09:53:33;7.63;;;1.50;;
25213;SDS011;13160;51.834;4.706;2023-04-25T09:56:03;12.75;;;2.30;;
25213;SDS011;13160;51.834;4.706;2023-04-25T09:58:35;6.60;;;1.25;;
25213;SDS011;13160;51.834;4.706;2023-04-25T10:01:05;11.57;;;1.33;;
25213;SDS011;13160;51.834;4.706;2023-04-25T10:03:35;6.25;;;1.30;;
25213;SDS011;13160;51.834;4.706;2023-04-25T10:06:08;8.57;;;1.75;;
25213;SDS011;13160;51.834;4.706;2023-04-25T10:08:40;9.57;;;1.58;;
25213;SDS011;13160;51.834;4.706;2023-04-25T10:11:11;12.02;;;1.83;;
25213;SDS011;13160;51.834;4.706;2023-04-25T10:13:42;7.30;;;1.65;;
25213;SDS011;13160;51.834;4.706;2023-04-25T10:16:11;11.30;;;1.83;;
25213;SDS011;13160;51.834;4.706;2023-04-25T10:18:40;8.20;;;1.60;;
25213;SDS011;13160;51.834;4.706;2023-04-25T10:21:10;11.90;;;2.03;;
25213;SDS011;13160;51.834;4.706;2023-04-25T10:23:40;6.45;;;2.00;;
25213;SDS011;13160;51.834;4.706;2023-04-25T10:26:09;10.40;;;1.70;;
25213;SDS011;13160;51.834;4.706;2023-04-25T10:28:54;10.77;;;1.63;;
25213;SDS011;13160;51.834;4.706;2023-04-25T10:31:24;10.43;;;1.75;;
25213;SDS011;13160;51.834;4.706;2023-04-25T10:33:53;5.18;;;1.17;;
25213;SDS011;13160;51.834;4.706;2023-04-25T10:36:23;6.90;;;1.30;;
25213;SDS011;13160;51.834;4.706;2023-04-25T10:38:53;7.78;;;1.50;;
25213;SDS011;13160;51.834;4.706;2023-04-25T10:41:21;11.43;;;1.67;;
25213;SDS011;13160;51.834;4.706;2023-04-25T10:43:50;5.43;;;1.40;;
25213;SDS011;13160;51.834;4.706;2023-04-25T10:46:28;9.90;;;1.92;;
25213;SDS011;13160;51.834;4.706;2023-04-25T10:48:59;8.20;;;1.45;;
25213;SDS011;13160;51.834;4.706;2023-04-25T10:51:30;5.32;;;1.27;;
25213;SDS011;13160;51.834;4.706;2023-04-25T10:54:20;7.80;;;1.40;;
25213;SDS011;13160;51.834;4.706;2023-04-25T10:56:52;5.47;;;1.30;;
25213;SDS011;13160;51.834;4.706;2023-04-25T10:59:20;9.90;;;1.70;;
25213;SDS011;13160;51.834;4.706;2023-04-25T11:01:53;9.68;;;1.48;;
25213;SDS011;13160;51.834;4.706;2023-04-25T11:04:22;11.82;;;1.50;;
25213;SDS011;13160;51.834;4.706;2023-04-25T11:07:03;6.72;;;1.48;;
25213;SDS011;13160;51.834;4.706;2023-04-25T11:09:39;10.15;;;1.77;;
25213;SDS011;13160;51.834;4.706;2023-04-25T11:12:08;8.40;;;1.35;;
25213;SDS011;13160;51.834;4.706;2023-04-25T11:14:39;6.35;;;1.33;;
25213;SDS011;13160;51.834;4.706;2023-04-25T11:17:08;7.95;;;1.58;;
25213;SDS011;13160;51.834;4.706;2023-04-25T11:19:37;10.38;;;1.70;;
25213;SDS011;13160;51.834;4.706;2023-04-25T11:22:07;11.15;;;1.73;;
25213;SDS011;13160;51.834;4.706;2023-04-25T11:24:37;8.27;;;1.50;;
25213;SDS011;13160;51.834;4.706;2023-04-25T11:27:06;8.05;;;1.50;;
25213;SDS011;13160;51.834;4.706;2023-04-25T11:29:34;11.88;;;1.55;;
25213;SDS011;13160;51.834;4.706;2023-04-25T11:32:03;10.55;;;1.60;;
25213;SDS011;13160;51.834;4.706;2023-04-25T11:34:32;7.78;;;1.63;;
25213;SDS011;13160;51.834;4.706;2023-04-25T11:37:01;9.55;;;1.48;;
25213;SDS011;13160;51.834;4.706;2023-04-25T11:39:31;10.65;;;1.55;;
25213;SDS011;13160;51.834;4.706;2023-04-25T11:42:00;6.15;;;1.02;;
25213;SDS011;13160;51.834;4.706;2023-04-25T11:44:32;7.85;;;1.80;;
25213;SDS011;13160;51.834;4.706;2023-04-25T11:47:01;7.57;;;2.13;;
25213;SDS011;13160;51.834;4.706;2023-04-25T11:49:30;4.65;;;1.02;;
25213;SDS011;13160;51.834;4.706;2023-04-25T11:51:59;6.05;;;1.70;;
25213;SDS011;13160;51.834;4.706;2023-04-25T11:54:28;6.00;;;1.33;;
25213;SDS011;13160;51.834;4.706;2023-04-25T11:56:58;8.55;;;1.55;;
25213;SDS011;13160;51.834;4.706;2023-04-25T11:59:27;6.85;;;1.30;;
25213;SDS011;13160;51.834;4.706;2023-04-25T12:01:56;6.55;;;1.42;;
25213;SDS011;13160;51.834;4.706;2023-04-25T12:04:25;6.57;;;1.67;;
25213;SDS011;13160;51.834;4.706;2023-04-25T12:06:58;9.35;;;1.60;;
25213;SDS011;13160;51.834;4.706;2023-04-25T12:09:29;9.10;;;1.40;;
25213;SDS011;13160;51.834;4.706;2023-04-25T12:12:02;7.32;;;1.35;;
25213;SDS011;13160;51.834;4.706;2023-04-25T12:14:33;9.73;;;1.42;;
25213;SDS011;13160;51.834;4.706;2023-04-25T12:17:03;9.57;;;1.58;;
25213;SDS011;13160;51.834;4.706;2023-04-25T12:19:35;7.20;;;1.48;;
25213;SDS011;13160;51.834;4.706;2023-04-25T12:22:18;7.70;;;1.30;;
25213;SDS011;13160;51.834;4.706;2023-04-25T12:24:48;6.78;;;1.67;;
25213;SDS011;13160;51.834;4.706;2023-04-25T12:27:21;7.22;;;1.65;;
25213;SDS011;13160;51.834;4.706;2023-04-25T12:29:50;11.95;;;2.05;;
25213;SDS011;13160;51.834;4.706;2023-04-25T12:32:23;6.82;;;1.60;;
25213;SDS011;13160;51.834;4.706;2023-04-25T12:34:55;7.75;;;1.33;;
25213;SDS011;13160;51.834;4.706;2023-04-25T12:37:26;6.47;;;1.27;;
25213;SDS011;13160;51.834;4.706;2023-04-25T12:40:05;4.88;;;1.30;;
25213;SDS011;13160;51.834;4.706;2023-04-25T12:42:36;9.23;;;1.35;;
25213;SDS011;13160;51.834;4.706;2023-04-25T12:45:05;7.00;;;1.40;;
25213;SDS011;13160;51.834;4.706;2023-04-25T12:47:34;6.82;;;1.52;;
25213;SDS011;13160;51.834;4.706;2023-04-25T12:50:03;6.05;;;1.45;;
25213;SDS011;13160;51.834;4.706;2023-04-25T12:52:33;8.55;;;1.60;;
25213;SDS011;13160;51.834;4.706;2023-04-25T12:55:01;10.63;;;1.42;;
25213;SDS011;13160;51.834;4.706;2023-04-25T12:57:30;11.52;;;2.33;;
25213;SDS011;13160;51.834;4.706;2023-04-25T13:00:00;9.80;;;2.10;;
25213;SDS011;13160;51.834;4.706;2023-04-25T13:02:30;6.32;;;1.50;;
25213;SDS011;13160;51.834;4.706;2023-04-25T13:04:59;6.50;;;1.27;;
25213;SDS011;13160;51.834;4.706;2023-04-25T13:07:27;7.55;;;1.75;;
25213;SDS011;13160;51.834;4.706;2023-04-25T13:09:56;8.93;;;1.50;;
25213;SDS011;13160;51.834;4.706;2023-04-25T13:12:25;7.07;;;1.30;;
25213;SDS011;13160;51.834;4.706;2023-04-25T13:14:53;7.28;;;1.50;;
25213;SDS011;13160;51.834;4.706;2023-04-25T13:17:26;9.18;;;1.40;;
25213;SDS011;13160;51.834;4.706;2023-04-25T13:20:00;7.15;;;1.40;;
25213;SDS011;13160;51.834;4.706;2023-04-25T13:22:30;7.32;;;1.70;;
25213;SDS011;13160;51.834;4.706;2023-04-25T13:25:00;6.38;;;1.40;;
25213;SDS011;13160;51.834;4.706;2023-04-25T13:27:29;10.20;;;1.75;;
25213;SDS011;13160;51.834;4.706;2023-04-25T13:29:58;7.57;;;1.80;;
25213;SDS011;13160;51.834;4.706;2023-04-25T13:32:29;8.88;;;1.90;;
25213;SDS011;13160;51.834;4.706;2023-04-25T13:34:57;11.18;;;2.15;;
25213;SDS011;13160;51.834;4.706;2023-04-25T13:37:28;12.00;;;2.00;;
25213;SDS011;13160;51.834;4.706;2023-04-25T13:39:59;10.75;;;1.63;;
25213;SDS011;13160;51.834;4.706;2023-04-25T13:42:30;6.65;;;1.50;;
25213;SDS011;13160;51.834;4.706;2023-04-25T13:44:59;8.07;;;1.40;;
25213;SDS011;13160;51.834;4.706;2023-04-25T13:47:29;9.98;;;1.80;;
25213;SDS011;13160;51.834;4.706;2023-04-25T13:49:57;7.68;;;1.55;;
25213;SDS011;13160;51.834;4.706;2023-04-25T13:52:26;6.70;;;1.45;;
25213;SDS011;13160;51.834;4.706;2023-04-25T13:54:55;8.52;;;1.55;;
25213;SDS011;13160;51.834;4.706;2023-04-25T13:57:23;5.10;;;1.50;;
25213;SDS011;13160;51.834;4.706;2023-04-25T13:59:52;9.88;;;2.05;;
25213;SDS011;13160;51.834;4.706;2023-04-25T14:02:20;10.52;;;1.67;;
25213;SDS011;13160;51.834;4.706;2023-04-25T14:04:51;8.70;;;1.48;;
25213;SDS011;13160;51.834;4.706;2023-04-25T14:07:20;8.05;;;1.70;;
25213;SDS011;13160;51.834;4.706;2023-04-25T14:09:48;7.10;;;1.70;;
25213;SDS011;13160;51.834;4.706;2023-04-25T14:12:24;6.28;;;1.52;;
25213;SDS011;13160;51.834;4.706;2023-04-25T14:14:58;12.85;;;2.28;;
25213;SDS011;13160;51.834;4.706;2023-04-25T14:17:37;10.02;;;1.48;;
25213;SDS011;13160;51.834;4.706;2023-04-25T14:20:10;11.35;;;2.53;;
25213;SDS011;13160;51.834;4.706;2023-04-25T14:22:40;7.35;;;1.50;;
25213;SDS011;13160;51.834;4.706;2023-04-25T14:25:10;7.72;;;1.88;;
25213;SDS011;13160;51.834;4.706;2023-04-25T14:27:38;7.40;;;1.73;;
25213;SDS011;13160;51.834;4.706;2023-04-25T14:30:16;11.45;;;1.80;;
25213;SDS011;13160;51.834;4.706;2023-04-25T14:32:45;8.55;;;1.90;;
25213;SDS011;13160;51.834;4.706;2023-04-25T14:35:18;9.82;;;1.75;;
25213;SDS011;13160;51.834;4.706;2023-04-25T14:37:49;6.55;;;1.65;;
25213;SDS011;13160;51.834;4.706;2023-04-25T14:40:17;8.90;;;1.75;;
25213;SDS011;13160;51.834;4.706;2023-04-25T14:42:49;8.13;;;2.15;;
25213;SDS011;13160;51.834;4.706;2023-04-25T14:45:18;7.95;;;1.92;;
25213;SDS011;13160;51.834;4.706;2023-04-25T14:47:49;7.80;;;1.48;;
25213;SDS011;13160;51.834;4.706;2023-04-25T14:50:22;5.82;;;1.33;;
25213;SDS011;13160;51.834;4.706;2023-04-25T14:52:51;4.35;;;1.30;;
25213;SDS011;13160;51.834;4.706;2023-04-25T14:55:19;4.93;;;1.50;;